Time;durP1;ratioP1;P1;durP2;ratioP2;P2;SDS_P1;SDS_P2;PMS_P1;PMS_P2;Temp;Humidity;BMP_temperature;BMP_pressure;BME280_temperature;BME280_humidity;BME280_pressure;Samples;Min_cycle;Max_cycle;Signal;HPM_P1;HPM_P2
2021/07/10 00:00:15;;;;;;;12.90;5.43;;;15.60;99.90;;;;;;5005723;28;20022;-72
2021/07/10 00:02:41;;;;;;;11.15;5.10;;;15.70;99.90;;;;;;5004331;28;20165;-72
2021/07/10 00:05:10;;;;;;;14.50;5.60;;;15.60;99.90;;;;;;5005379;28;20030;-69
2021/07/10 00:07:36;;;;;;;15.68;4.50;;;15.60;99.90;;;;;;5005743;28;20026;-69
2021/07/10 00:10:08;;;;;;;10.52;5.55;;;15.60;99.90;;;;;;5005145;28;20131;-71
2021/07/10 00:12:33;;;;;;;7.07;4.63;;;15.50;99.90;;;;;;5005447;28;20046;-68
2021/07/10 00:14:59;;;;;;;9.27;4.72;;;15.50;99.90;;;;;;5005326;28;20077;-69
2021/07/10 00:17:24;;;;;;;8.93;5.15;;;15.50;99.90;;;;;;5005370;28;20105;-69
2021/07/10 00:19:52;;;;;;;9.65;4.63;;;15.60;99.90;;;;;;5005061;28;20030;-69
2021/07/10 00:22:19;;;;;;;10.35;4.80;;;15.50;99.90;;;;;;5005205;28;20053;-72
2021/07/10 00:24:45;;;;;;;8.18;4.22;;;15.50;99.90;;;;;;5005264;28;20496;-69
2021/07/10 00:27:11;;;;;;;11.70;5.25;;;15.50;99.90;;;;;;5005398;28;20022;-69
2021/07/10 00:29:36;;;;;;;12.23;4.93;;;15.50;99.90;;;;;;5005421;28;20053;-69
2021/07/10 00:32:02;;;;;;;6.43;3.90;;;15.40;99.90;;;;;;5005323;28;20026;-69
2021/07/10 00:34:28;;;;;;;8.90;4.93;;;15.40;99.90;;;;;;5005165;28;20388;-69
2021/07/10 00:36:54;;;;;;;8.32;4.38;;;15.40;99.90;;;;;;5005083;28;20083;-67
2021/07/10 00:39:19;;;;;;;10.13;4.80;;;15.40;99.90;;;;;;5005014;28;20102;-68
2021/07/10 00:41:45;;;;;;;9.05;4.47;;;15.30;99.90;;;;;;5005164;28;20031;-67
2021/07/10 00:44:10;;;;;;;9.68;4.63;;;15.30;99.90;;;;;;5005228;28;20030;-69
2021/07/10 00:46:36;;;;;;;10.70;5.53;;;15.30;99.90;;;;;;5005342;28;20034;-68
2021/07/10 00:49:02;;;;;;;10.77;4.60;;;15.30;99.90;;;;;;5005165;28;20031;-69
2021/07/10 00:51:27;;;;;;;9.57;4.40;;;15.30;99.90;;;;;;5004814;28;20023;-68
2021/07/10 00:53:53;;;;;;;11.73;4.72;;;15.10;99.90;;;;;;5005020;28;20037;-67
2021/07/10 00:56:18;;;;;;;12.60;4.80;;;15.20;99.90;;;;;;5004958;28;20057;-69
2021/07/10 00:58:45;;;;;;;10.55;4.68;;;15.20;99.90;;;;;;5004941;28;20026;-68
2021/07/10 01:01:11;;;;;;;8.40;4.47;;;15.20;99.90;;;;;;5005183;28;20473;-68
2021/07/10 01:03:44;;;;;;;9.82;5.47;;;15.20;99.90;;;;;;5004874;28;20039;-68
2021/07/10 01:06:10;;;;;;;8.48;5.18;;;15.10;99.90;;;;;;5008595;28;20089;-68
2021/07/10 01:08:36;;;;;;;12.05;4.78;;;15.10;99.90;;;;;;5008899;28;20034;-68
2021/07/10 01:11:03;;;;;;;7.55;4.75;;;15.10;99.90;;;;;;5008472;28;20158;-67
2021/07/10 01:13:28;;;;;;;11.07;4.68;;;15.10;99.90;;;;;;5008655;28;20022;-67
2021/07/10 01:15:54;;;;;;;10.02;5.10;;;15.00;99.90;;;;;;5008676;28;20033;-68
2021/07/10 01:18:20;;;;;;;13.00;5.45;;;15.00;99.90;;;;;;5008705;28;20073;-69
2021/07/10 01:20:50;;;;;;;9.77;4.97;;;14.90;99.90;;;;;;5008511;28;20033;-69
2021/07/10 01:23:16;;;;;;;18.50;6.30;;;14.90;99.90;;;;;;5008701;28;20038;-68
2021/07/10 01:25:43;;;;;;;8.55;5.22;;;14.90;99.90;;;;;;5008502;28;20026;-68
2021/07/10 01:28:09;;;;;;;14.20;5.75;;;14.90;99.90;;;;;;5008675;28;20038;-68
2021/07/10 01:30:36;;;;;;;14.60;5.82;;;14.90;99.90;;;;;;5008497;28;20197;-67
2021/07/10 01:33:03;;;;;;;13.07;5.55;;;14.90;99.90;;;;;;5008309;28;20023;-68
2021/07/10 01:35:29;;;;;;;13.32;5.60;;;14.80;99.90;;;;;;5008155;28;20054;-68
2021/07/10 01:37:55;;;;;;;12.52;5.53;;;14.80;99.90;;;;;;5008173;28;20037;-68
2021/07/10 01:40:22;;;;;;;13.38;6.40;;;14.80;99.90;;;;;;5008170;28;20053;-68
2021/07/10 01:42:49;;;;;;;11.07;4.15;;;14.80;99.90;;;;;;5008165;28;20057;-68
2021/07/10 01:45:17;;;;;;;8.68;4.93;;;14.70;99.90;;;;;;5008297;28;20033;-68
2021/07/10 01:47:43;;;;;;;8.02;4.80;;;14.80;99.90;;;;;;5008018;28;20026;-68
2021/07/10 01:50:10;;;;;;;14.80;5.43;;;14.80;99.90;;;;;;5008174;28;20138;-67
2021/07/10 01:52:37;;;;;;;9.65;5.15;;;14.80;99.90;;;;;;5007896;28;20073;-69
2021/07/10 01:55:05;;;;;;;16.98;5.22;;;14.80;99.90;;;;;;5022979;28;20027;-68
2021/07/10 01:57:30;;;;;;;6.28;4.28;;;14.80;99.90;;;;;;5007677;28;20035;-68
2021/07/10 01:59:56;;;;;;;11.10;5.32;;;14.80;99.90;;;;;;5007768;28;20041;-68
2021/07/10 02:02:22;;;;;;;9.55;4.75;;;14.80;99.90;;;;;;5007680;28;20046;-68
2021/07/10 02:04:49;;;;;;;9.45;5.22;;;14.80;99.90;;;;;;5007486;28;20034;-68
2021/07/10 02:07:16;;;;;;;16.40;5.68;;;14.70;99.90;;;;;;5007772;28;20022;-68
2021/07/10 02:09:42;;;;;;;10.23;5.60;;;14.70;99.90;;;;;;5007622;28;20038;-68
2021/07/10 02:12:10;;;;;;;10.40;6.05;;;14.70;99.90;;;;;;5007805;28;20053;-67
2021/07/10 02:14:36;;;;;;;10.50;5.15;;;14.70;99.90;;;;;;5007522;28;20077;-68
2021/07/10 02:17:01;;;;;;;15.82;5.38;;;14.70;99.90;;;;;;5006539;28;20026;-67
2021/07/10 02:19:27;;;;;;;12.18;5.57;;;14.70;99.90;;;;;;5007262;28;20027;-69
2021/07/10 02:21:53;;;;;;;11.40;5.03;;;14.70;99.90;;;;;;5007369;28;20022;-68
2021/07/10 02:24:18;;;;;;;11.15;5.30;;;14.80;99.90;;;;;;5007307;28;20031;-68
2021/07/10 02:26:44;;;;;;;12.32;5.63;;;14.70;99.90;;;;;;5007510;28;20034;-68
2021/07/10 02:29:10;;;;;;;9.55;5.25;;;14.80;99.90;;;;;;5007194;28;20026;-68
2021/07/10 02:31:36;;;;;;;15.38;5.35;;;14.80;99.90;;;;;;5007416;28;20034;-68
2021/07/10 02:34:03;;;;;;;9.77;4.45;;;14.80;99.90;;;;;;5007261;28;20082;-67
2021/07/10 02:36:29;;;;;;;9.35;4.72;;;14.80;99.90;;;;;;5007122;28;20465;-67
2021/07/10 02:38:55;;;;;;;15.43;5.72;;;14.70;99.90;;;;;;5006886;28;20027;-67
2021/07/10 02:41:21;;;;;;;11.70;5.05;;;14.80;99.90;;;;;;5007028;28;20050;-67
2021/07/10 02:43:46;;;;;;;18.30;5.38;;;14.70;99.90;;;;;;5006818;28;20057;-69
2021/07/10 02:46:12;;;;;;;13.32;4.95;;;14.70;99.90;;;;;;5007116;28;20049;-70
2021/07/10 02:48:38;;;;;;;6.93;4.03;;;14.70;99.90;;;;;;5007215;28;20725;-68
2021/07/10 02:51:03;;;;;;;13.05;5.38;;;14.70;99.90;;;;;;5007105;28;20053;-67
2021/07/10 02:53:29;;;;;;;12.52;5.38;;;14.70;99.90;;;;;;5006921;28;20019;-68
2021/07/10 02:55:56;;;;;;;11.75;4.82;;;14.70;99.90;;;;;;5006864;28;20046;-68
2021/07/10 02:58:21;;;;;;;7.32;4.30;;;14.70;99.90;;;;;;5006654;28;20030;-70
2021/07/10 03:00:47;;;;;;;11.75;4.25;;;14.70;99.90;;;;;;5006575;28;20034;-68
2021/07/10 03:03:13;;;;;;;8.23;3.85;;;14.70;99.90;;;;;;5006817;28;20034;-68
2021/07/10 03:05:38;;;;;;;6.65;3.42;;;14.70;99.90;;;;;;5006678;28;20496;-67
2021/07/10 03:08:05;;;;;;;9.95;4.50;;;14.70;99.90;;;;;;5006673;28;20022;-67
2021/07/10 03:10:31;;;;;;;7.90;3.92;;;14.70;99.90;;;;;;5006467;28;20046;-69
2021/07/10 03:12:58;;;;;;;8.50;4.32;;;14.70;99.90;;;;;;5006259;28;20071;-68
2021/07/10 03:15:25;;;;;;;9.90;4.18;;;14.70;99.90;;;;;;5006477;28;20461;-68
2021/07/10 03:17:52;;;;;;;7.90;3.83;;;14.60;99.90;;;;;;5006423;28;20113;-68
2021/07/10 03:20:20;;;;;;;7.78;3.72;;;14.70;99.90;;;;;;5006063;28;20026;-68
2021/07/10 03:22:46;;;;;;;7.70;3.47;;;14.70;99.90;;;;;;5006239;28;20026;-72
2021/07/10 03:25:12;;;;;;;6.88;3.60;;;14.70;99.90;;;;;;5006485;28;20023;-69
2021/07/10 03:27:39;;;;;;;7.43;4.15;;;14.70;99.90;;;;;;5006295;28;20034;-68
2021/07/10 03:30:07;;;;;;;8.82;4.68;;;14.70;99.90;;;;;;5006175;28;20038;-67
2021/07/10 03:32:34;;;;;;;7.82;4.38;;;14.60;99.90;;;;;;5006006;28;20041;-69
2021/07/10 03:35:00;;;;;;;11.55;5.07;;;14.60;99.90;;;;;;5005762;28;20030;-69
2021/07/10 03:37:25;;;;;;;7.70;4.28;;;14.60;99.90;;;;;;5005945;28;20030;-68
2021/07/10 03:39:51;;;;;;;10.57;5.05;;;14.60;99.90;;;;;;5005702;28;20138;-69
2021/07/10 03:42:17;;;;;;;9.50;5.15;;;14.60;99.90;;;;;;5006148;28;20050;-69
2021/07/10 03:44:42;;;;;;;6.70;3.95;;;14.60;99.90;;;;;;5005955;28;20491;-70
2021/07/10 03:47:08;;;;;;;11.75;3.97;;;14.60;99.90;;;;;;5006126;28;20057;-70
2021/07/10 03:49:33;;;;;;;8.07;4.47;;;14.60;99.90;;;;;;5005596;28;20053;-68
2021/07/10 03:51:59;;;;;;;6.68;3.85;;;14.50;99.90;;;;;;5005638;28;20069;-68
2021/07/10 03:54:25;;;;;;;9.18;5.03;;;14.50;99.90;;;;;;5005542;28;20060;-69
2021/07/10 03:56:50;;;;;;;12.98;5.60;;;14.50;99.90;;;;;;5005600;28;20830;-68
2021/07/10 03:59:16;;;;;;;7.07;4.00;;;14.50;99.90;;;;;;5005688;28;20038;-68
2021/07/10 04:01:45;;;;;;;12.45;5.72;;;14.50;99.90;;;;;;5005767;28;20033;-69
2021/07/10 04:04:11;;;;;;;7.15;4.10;;;14.50;99.90;;;;;;5005517;28;20023;-69
2021/07/10 04:06:37;;;;;;;8.50;5.10;;;14.50;99.90;;;;;;5005529;28;20030;-68
2021/07/10 04:09:03;;;;;;;8.15;4.63;;;14.60;99.90;;;;;;5005426;28;20030;-69
2021/07/10 04:11:28;;;;;;;10.80;4.95;;;14.60;99.90;;;;;;5005222;28;20050;-68
2021/07/10 04:13:54;;;;;;;8.13;4.95;;;14.60;99.90;;;;;;5005302;28;20033;-68
2021/07/10 04:16:20;;;;;;;9.18;4.90;;;14.60;99.90;;;;;;5005312;28;20066;-69
2021/07/10 04:18:45;;;;;;;11.40;4.53;;;14.60;99.90;;;;;;5005512;28;20022;-68
2021/07/10 04:21:11;;;;;;;17.65;5.35;;;14.60;99.90;;;;;;5005639;28;20101;-68
2021/07/10 04:23:36;;;;;;;9.27;4.78;;;14.70;99.90;;;;;;5005418;28;20567;-69
2021/07/10 04:26:02;;;;;;;7.40;4.25;;;14.60;99.90;;;;;;5005235;28;20034;-67
2021/07/10 04:28:28;;;;;;;11.68;5.82;;;14.70;99.90;;;;;;5005162;28;20062;-68
2021/07/10 04:30:53;;;;;;;10.50;4.95;;;14.70;99.90;;;;;;5005127;28;20039;-68
2021/07/10 04:33:19;;;;;;;10.82;4.72;;;14.70;99.90;;;;;;5005032;28;20189;-68
2021/07/10 04:35:44;;;;;;;10.30;5.05;;;14.80;99.90;;;;;;5005115;28;20027;-69
2021/07/10 04:38:11;;;;;;;8.85;4.68;;;14.70;99.90;;;;;;5005410;28;20045;-69
2021/07/10 04:40:36;;;;;;;9.82;5.22;;;14.80;99.90;;;;;;5008078;28;20022;-70
2021/07/10 04:43:03;;;;;;;8.52;4.75;;;14.80;99.90;;;;;;5009096;28;20041;-73
2021/07/10 04:45:29;;;;;;;13.27;5.38;;;14.80;99.90;;;;;;5008962;28;20022;-68
2021/07/10 04:47:55;;;;;;;10.23;5.18;;;14.80;99.90;;;;;;5008947;28;20113;-69
2021/07/10 04:50:23;;;;;;;12.13;4.68;;;14.90;99.90;;;;;;5008041;28;20042;-70
2021/07/10 04:52:58;;;;;;;6.85;4.45;;;14.90;99.90;;;;;;5007833;28;20026;-74
2021/07/10 04:55:24;;;;;;;9.73;5.10;;;14.90;99.90;;;;;;5006780;28;20054;-69
2021/07/10 04:57:50;;;;;;;7.65;4.18;;;14.90;99.90;;;;;;5008213;28;20038;-71
2021/07/10 05:00:17;;;;;;;11.95;4.78;;;14.90;99.90;;;;;;5008946;28;20050;-71
2021/07/10 05:02:43;;;;;;;8.82;4.97;;;15.00;99.90;;;;;;5008886;28;20018;-68
2021/07/10 05:05:10;;;;;;;8.48;3.80;;;15.00;99.90;;;;;;5008779;28;20034;-69
2021/07/10 05:07:36;;;;;;;7.93;4.35;;;15.00;99.90;;;;;;5008737;28;20053;-67
2021/07/10 05:10:03;;;;;;;12.57;5.00;;;15.10;99.90;;;;;;5009176;28;20496;-69
2021/07/10 05:12:28;;;;;;;10.43;5.13;;;15.10;99.90;;;;;;5015072;28;20042;-71
2021/07/10 05:14:54;;;;;;;10.40;4.50;;;15.10;99.90;;;;;;5015574;28;20029;-72
2021/07/10 05:17:20;;;;;;;14.35;5.15;;;15.20;99.90;;;;;;5013149;28;20079;-69
2021/07/10 05:19:46;;;;;;;9.52;4.43;;;15.20;99.90;;;;;;5013829;28;20812;-69
2021/07/10 05:22:13;;;;;;;10.07;4.20;;;15.30;99.90;;;;;;5015343;28;20028;-68
2021/07/10 05:24:39;;;;;;;12.68;5.88;;;15.30;99.90;;;;;;5008614;28;20057;-68
2021/07/10 05:27:06;;;;;;;12.98;5.57;;;15.40;99.90;;;;;;5008602;28;20416;-70
2021/07/10 05:29:32;;;;;;;9.25;4.90;;;15.40;99.90;;;;;;5008301;28;20489;-68
2021/07/10 05:31:58;;;;;;;18.70;6.07;;;15.40;99.90;;;;;;5008026;28;20034;-69
2021/07/10 05:34:32;;;;;;;8.40;5.00;;;15.50;99.90;;;;;;5008449;28;20034;-71
2021/07/10 05:36:58;;;;;;;8.25;4.93;;;15.50;99.90;;;;;;5006567;28;20037;-70
2021/07/10 05:39:23;;;;;;;9.48;4.70;;;15.50;99.90;;;;;;5008372;28;20038;-70
2021/07/10 05:41:49;;;;;;;9.90;4.75;;;15.60;99.90;;;;;;5008314;28;20113;-70
2021/07/10 05:44:15;;;;;;;7.85;4.28;;;15.60;99.90;;;;;;5008207;28;20042;-71
2021/07/10 05:46:40;;;;;;;10.68;5.28;;;15.70;99.90;;;;;;5008187;28;20484;-71
2021/07/10 05:49:06;;;;;;;8.68;4.18;;;15.70;99.90;;;;;;5006470;28;20472;-73
2021/07/10 05:51:31;;;;;;;9.82;4.03;;;15.70;99.90;;;;;;5007854;28;20034;-69
2021/07/10 05:53:57;;;;;;;10.23;5.22;;;15.80;99.90;;;;;;5007969;28;20037;-72
2021/07/10 05:56:22;;;;;;;7.53;3.75;;;15.90;99.90;;;;;;5007610;28;20053;-68
2021/07/10 05:58:48;;;;;;;9.25;4.20;;;15.90;99.90;;;;;;5007931;28;20030;-73
2021/07/10 06:01:14;;;;;;;14.80;5.07;;;15.90;99.90;;;;;;5022554;28;20041;-69
2021/07/10 06:03:40;;;;;;;8.80;3.80;;;15.90;99.90;;;;;;5007832;28;20030;-73
2021/07/10 06:06:05;;;;;;;8.32;4.18;;;16.00;99.90;;;;;;5022689;28;20061;-71
2021/07/10 06:08:31;;;;;;;6.18;3.42;;;16.00;99.90;;;;;;5007688;28;20117;-69
2021/07/10 06:10:57;;;;;;;12.25;4.22;;;16.10;99.90;;;;;;5007334;28;20101;-69
2021/07/10 06:13:23;;;;;;;8.85;4.60;;;16.10;99.90;;;;;;5007782;28;20026;-70
2021/07/10 06:15:48;;;;;;;5.53;3.92;;;16.10;99.90;;;;;;5007656;28;20049;-69
2021/07/10 06:18:14;;;;;;;9.82;4.20;;;16.20;99.90;;;;;;5019609;28;20112;-69
2021/07/10 06:20:41;;;;;;;9.98;4.50;;;16.20;99.90;;;;;;5026951;28;20036;-68
2021/07/10 06:23:07;;;;;;;10.43;4.38;;;16.20;99.90;;;;;;5026268;28;20089;-69
2021/07/10 06:25:34;;;;;;;12.80;3.92;;;16.30;99.90;;;;;;5025750;28;20105;-72
2021/07/10 06:28:00;;;;;;;8.40;3.58;;;16.30;99.90;;;;;;5026842;28;20034;-68
2021/07/10 06:30:26;;;;;;;6.15;3.75;;;16.30;99.90;;;;;;5026793;28;20037;-71
2021/07/10 06:32:51;;;;;;;8.65;3.67;;;16.40;99.90;;;;;;5026677;28;20484;-70
2021/07/10 06:35:17;;;;;;;7.63;3.75;;;16.50;99.90;;;;;;5027043;28;20026;-73
2021/07/10 06:37:43;;;;;;;6.55;3.53;;;16.50;99.90;;;;;;5025744;28;20026;-72
2021/07/10 06:40:13;;;;;;;6.45;3.47;;;16.60;99.90;;;;;;5026749;28;20034;-70
2021/07/10 06:42:38;;;;;;;8.68;4.03;;;16.60;99.90;;;;;;5026492;28;20021;-68
2021/07/10 06:45:10;;;;;;;6.00;2.85;;;16.70;99.90;;;;;;5026556;28;20399;-70
2021/07/10 06:47:36;;;;;;;7.63;3.05;;;16.70;99.90;;;;;;5026616;28;20034;-72
2021/07/10 06:50:05;;;;;;;6.53;3.03;;;16.80;99.90;;;;;;5026335;28;20092;-68
2021/07/10 06:52:30;;;;;;;3.95;2.75;;;16.80;99.90;;;;;;5026689;28;20022;-69
2021/07/10 06:54:56;;;;;;;5.93;3.00;;;16.90;99.90;;;;;;5026415;28;20077;-70
2021/07/10 06:57:21;;;;;;;5.28;3.22;;;17.00;99.90;;;;;;5025538;28;20030;-76
2021/07/10 06:59:47;;;;;;;5.55;3.17;;;17.00;99.90;;;;;;5024500;28;20030;-70
2021/07/10 07:02:12;;;;;;;5.80;2.97;;;17.10;99.90;;;;;;5025866;28;20534;-70
2021/07/10 07:04:39;;;;;;;3.17;2.13;;;17.20;99.90;;;;;;5034092;28;20052;-70
2021/07/10 07:07:05;;;;;;;5.40;2.55;;;17.20;99.90;;;;;;5036295;28;20029;-74
2021/07/10 07:09:31;;;;;;;8.88;2.67;;;17.20;99.90;;;;;;5030463;28;20050;-72
2021/07/10 07:11:56;;;;;;;5.43;2.72;;;17.30;99.90;;;;;;5036484;28;20073;-70
2021/07/10 07:14:22;;;;;;;2.92;1.83;;;17.30;99.90;;;;;;5045982;28;20033;-70
2021/07/10 07:16:48;;;;;;;2.63;1.90;;;17.30;99.90;;;;;;5038127;28;20068;-69
2021/07/10 07:19:13;;;;;;;4.57;2.65;;;17.40;99.90;;;;;;5025939;28;20033;-69
2021/07/10 07:21:39;;;;;;;3.35;1.98;;;17.50;99.90;;;;;;5015571;28;20037;-69
2021/07/10 07:24:05;;;;;;;3.50;2.03;;;17.60;99.90;;;;;;5019468;28;20380;-69
2021/07/10 07:26:32;;;;;;;2.47;1.65;;;17.60;99.90;;;;;;5024689;28;20058;-70
2021/07/10 07:28:57;;;;;;;3.58;2.38;;;17.70;99.90;;;;;;5023935;28;20108;-70
2021/07/10 07:31:23;;;;;;;3.58;2.28;;;17.80;99.90;;;;;;5023887;28;20070;-70
2021/07/10 07:33:49;;;;;;;5.97;2.17;;;17.80;99.90;;;;;;5023978;28;20450;-72
2021/07/10 07:36:14;;;;;;;4.93;2.47;;;17.90;99.90;;;;;;5024498;28;20468;-70
2021/07/10 07:38:40;;;;;;;2.80;1.77;;;17.90;99.90;;;;;;5024963;28;20476;-68
2021/07/10 07:41:07;;;;;;;2.35;1.58;;;18.00;99.90;;;;;;5008606;28;20413;-70
2021/07/10 07:43:33;;;;;;;5.18;2.20;;;18.10;99.90;;;;;;5007715;28;20118;-68
2021/07/10 07:45:59;;;;;;;2.80;1.95;;;18.20;99.90;;;;;;5021455;28;20033;-69
2021/07/10 07:48:24;;;;;;;4.15;2.42;;;18.20;99.90;;;;;;5025189;28;20026;-70
2021/07/10 07:50:51;;;;;;;5.22;2.25;;;18.30;99.90;;;;;;5024656;28;20054;-73
2021/07/10 07:53:18;;;;;;;2.80;1.75;;;18.30;99.90;;;;;;5022123;28;20023;-69
2021/07/10 07:55:44;;;;;;;2.25;1.60;;;18.30;99.90;;;;;;5004614;28;20053;-70
2021/07/10 07:58:10;;;;;;;3.33;2.08;;;18.40;99.90;;;;;;5004633;28;20041;-72
2021/07/10 08:00:36;;;;;;;3.60;2.10;;;18.60;99.90;;;;;;5005625;28;20078;-71
2021/07/10 08:03:02;;;;;;;4.22;2.47;;;18.60;99.90;;;;;;5005529;28;20798;-70
2021/07/10 08:05:28;;;;;;;3.33;2.20;;;18.70;99.90;;;;;;5004152;28;20022;-71
2021/07/10 08:07:54;;;;;;;9.85;3.45;;;18.70;99.90;;;;;;5023947;28;20022;-67
2021/07/10 08:10:20;;;;;;;5.50;2.53;;;18.90;99.90;;;;;;5009830;28;20107;-72
2021/07/10 08:12:49;;;;;;;6.47;2.47;;;19.00;99.90;;;;;;5005453;28;20107;-72
2021/07/10 08:15:21;;;;;;;4.10;2.47;;;19.10;99.90;;;;;;5011411;28;20099;-69
2021/07/10 08:17:48;;;;;;;4.55;2.67;;;19.10;99.90;;;;;;5025017;28;20029;-70
2021/07/10 08:20:15;;;;;;;3.13;2.13;;;19.20;99.90;;;;;;5024354;28;20030;-70
2021/07/10 08:22:42;;;;;;;5.70;2.28;;;19.30;99.90;;;;;;5008173;28;20022;-71
2021/07/10 08:25:09;;;;;;;5.88;2.78;;;19.40;99.90;;;;;;5005170;28;20093;-70
2021/07/10 08:27:34;;;;;;;2.95;1.95;;;19.40;99.90;;;;;;5010530;28;20038;-70
2021/07/10 08:30:00;;;;;;;4.63;2.33;;;19.40;99.90;;;;;;5011960;28;20057;-68
2021/07/10 08:32:25;;;;;;;5.30;2.58;;;19.40;99.90;;;;;;5013537;28;20377;-72
2021/07/10 08:34:51;;;;;;;3.67;2.30;;;19.50;99.90;;;;;;5024736;28;20408;-71
2021/07/10 08:37:17;;;;;;;4.57;2.30;;;19.60;99.90;;;;;;5023783;28;20034;-69
2021/07/10 08:39:43;;;;;;;3.95;2.05;;;19.60;99.90;;;;;;5023452;28;20034;-72
2021/07/10 08:42:09;;;;;;;3.83;2.28;;;19.70;99.90;;;;;;5023233;28;20073;-70
2021/07/10 08:44:40;;;;;;;5.20;3.05;;;19.70;99.90;;;;;;5004629;28;20018;-70
2021/07/10 08:47:11;;;;;;;4.50;2.45;;;19.80;99.90;;;;;;5003733;28;20030;-69
2021/07/10 08:49:38;;;;;;;3.55;2.40;;;19.80;99.90;;;;;;5007568;28;20150;-68
2021/07/10 08:52:04;;;;;;;5.07;2.80;;;19.80;99.90;;;;;;5010512;28;20061;-68
2021/07/10 08:54:31;;;;;;;5.78;2.72;;;19.70;99.90;;;;;;5018389;28;20085;-72
2021/07/10 08:56:57;;;;;;;5.57;2.58;;;19.70;99.90;;;;;;5022716;28;20041;-69
2021/07/10 08:59:22;;;;;;;5.25;3.03;;;19.60;99.90;;;;;;5005711;28;20026;-68
2021/07/10 09:01:48;;;;;;;5.50;2.92;;;19.60;99.90;;;;;;5003709;28;20469;-70
2021/07/10 09:04:13;;;;;;;5.15;3.08;;;19.70;99.90;;;;;;5004845;28;20054;-69
2021/07/10 09:06:40;;;;;;;4.43;2.58;;;19.90;99.90;;;;;;5005083;28;20041;-68
2021/07/10 09:09:07;;;;;;;4.07;2.28;;;20.00;99.90;;;;;;5020683;28;20026;-69
2021/07/10 09:11:33;;;;;;;5.57;3.08;;;20.00;99.90;;;;;;5022505;28;20092;-69
2021/07/10 09:13:59;;;;;;;4.03;2.65;;;20.00;99.90;;;;;;5022937;28;20136;-70
2021/07/10 09:16:29;;;;;;;7.50;3.30;;;20.00;99.90;;;;;;5021422;28;20026;-70
2021/07/10 09:18:54;;;;;;;6.47;3.53;;;20.00;99.90;;;;;;5022828;28;20030;-71
2021/07/10 09:21:50;;;;;;;5.07;3.17;;;19.90;99.90;;;;;;5019749;28;20046;-71
2021/07/10 09:24:37;;;;;;;5.05;2.90;;;19.90;99.90;;;;;;5008267;28;20034;-71
2021/07/10 09:27:05;;;;;;;6.72;3.20;;;19.90;99.90;;;;;;5018326;28;20087;-70
2021/07/10 09:29:37;;;;;;;5.35;3.08;;;19.90;99.90;;;;;;5026567;28;20038;-68
2021/07/10 09:32:08;;;;;;;7.68;3.63;;;19.90;99.90;;;;;;5025461;28;20068;-70
2021/07/10 09:34:39;;;;;;;4.43;2.70;;;20.00;99.90;;;;;;5007568;28;20046;-69
2021/07/10 09:37:08;;;;;;;4.43;2.83;;;20.10;99.90;;;;;;5008022;28;20042;-70
2021/07/10 09:39:41;;;;;;;7.75;3.47;;;20.30;99.90;;;;;;5022246;28;20065;-71
2021/07/10 09:42:07;;;;;;;6.03;3.20;;;20.40;99.90;;;;;;5026555;28;20383;-68
2021/07/10 09:44:50;;;;;;;6.35;3.17;;;20.50;99.90;;;;;;5027169;28;20044;-69
2021/07/10 09:47:27;;;;;;;4.90;2.95;;;20.60;99.90;;;;;;5016544;28;20042;-74
2021/07/10 09:49:53;;;;;;;6.32;3.03;;;20.70;99.90;;;;;;5006863;28;20038;-71
2021/07/10 09:52:21;;;;;;;7.68;3.25;;;20.70;99.90;;;;;;5007045;28;20133;-71
2021/07/10 09:54:49;;;;;;;6.95;3.20;;;20.70;99.90;;;;;;5008020;28;20508;-70
2021/07/10 09:57:25;;;;;;;6.38;3.40;;;20.60;99.90;;;;;;5008170;28;20031;-71
2021/07/10 09:59:54;;;;;;;7.65;3.20;;;20.60;99.90;;;;;;5023223;28;20077;-70
2021/07/10 10:02:31;;;;;;;4.90;2.30;;;20.50;99.90;;;;;;5008509;28;20057;-69
2021/07/10 10:05:10;;;;;;;6.60;3.47;;;20.50;99.90;;;;;;5023696;28;20072;-71
2021/07/10 10:07:52;;;;;;;7.28;2.38;;;20.60;99.90;;;;;;5027648;28;20053;-69
2021/07/10 10:10:33;;;;;;;4.28;2.95;;;20.60;99.90;;;;;;5027236;28;20507;-70
2021/07/10 10:13:05;;;;;;;6.38;2.83;;;20.50;99.90;;;;;;5027124;28;20060;-71
2021/07/10 10:15:35;;;;;;;5.80;3.10;;;20.50;99.90;;;;;;5027406;28;20029;-70
2021/07/10 10:18:01;;;;;;;5.47;2.97;;;20.50;99.90;;;;;;5027373;28;20065;-70
2021/07/10 10:20:28;;;;;;;7.75;2.92;;;20.60;99.90;;;;;;5027005;28;20032;-68
2021/07/10 10:22:53;;;;;;;3.75;2.70;;;20.70;99.90;;;;;;5027223;28;20026;-69
2021/07/10 10:25:19;;;;;;;6.13;3.05;;;20.80;99.90;;;;;;5021480;28;20037;-69
2021/07/10 10:27:48;;;;;;;5.13;3.08;;;20.90;99.90;;;;;;5021667;28;20026;-69
2021/07/10 10:30:16;;;;;;;4.40;2.40;;;21.10;99.90;;;;;;5020640;28;20037;-70
2021/07/10 10:32:44;;;;;;;5.78;2.88;;;21.20;99.90;;;;;;5026923;28;20029;-71
2021/07/10 10:35:11;;;;;;;5.93;2.85;;;21.20;99.90;;;;;;5026935;28;20068;-69
2021/07/10 10:37:41;;;;;;;6.30;3.65;;;21.20;99.90;;;;;;5026088;28;20522;-70
2021/07/10 10:40:28;;;;;;;8.38;3.38;;;21.10;99.90;;;;;;5026636;28;20025;-70
2021/07/10 10:42:59;;;;;;;4.72;2.78;;;21.10;99.90;;;;;;5026610;28;20022;-68
2021/07/10 10:45:27;;;;;;;4.82;2.55;;;21.30;99.90;;;;;;5027177;28;20049;-71
2021/07/10 10:47:53;;;;;;;5.63;3.20;;;21.40;99.90;;;;;;5010609;28;20030;-73
2021/07/10 10:50:20;;;;;;;5.40;2.92;;;21.60;99.90;;;;;;5006775;28;20073;-71
2021/07/10 10:52:47;;;;;;;4.35;2.75;;;21.60;99.90;;;;;;5007055;28;20026;-69
2021/07/10 10:55:28;;;;;;;10.82;3.47;;;21.70;99.90;;;;;;5007285;28;20493;-69
2021/07/10 10:57:59;;;;;;;6.38;3.10;;;22.00;99.90;;;;;;5006629;28;20030;-69
2021/07/10 11:00:35;;;;;;;7.03;2.90;;;22.30;99.90;;;;;;5006795;28;20054;-70
2021/07/10 11:03:33;;;;;;;7.38;2.63;;;22.50;99.90;;;;;;5006981;28;20027;-68
2021/07/10 11:05:59;;;;;;;4.80;2.80;;;22.80;99.90;;;;;;5013225;28;20097;-73
2021/07/10 11:08:26;;;;;;;5.65;3.10;;;23.00;99.90;;;;;;5026392;28;20036;-70
2021/07/10 11:10:56;;;;;;;4.72;3.10;;;23.30;99.90;;;;;;5025693;28;20048;-69
2021/07/10 11:13:41;;;;;;;5.80;3.53;;;23.40;99.90;;;;;;5025021;28;20049;-71
2021/07/10 11:16:11;;;;;;;4.93;3.13;;;23.50;99.90;;;;;;5026433;28;20056;-72
2021/07/10 11:18:50;;;;;;;6.45;3.22;;;23.60;99.90;;;;;;5026286;28;20034;-71
2021/07/10 11:21:46;;;;;;;7.88;3.20;;;23.70;99.90;;;;;;5024889;28;20033;-69
2021/07/10 11:24:20;;;;;;;7.10;2.88;;;23.70;99.90;;;;;;5026487;28;20026;-71
2021/07/10 11:26:57;;;;;;;5.60;3.10;;;23.70;99.90;;;;;;5025902;28;20026;-68
2021/07/10 11:29:28;;;;;;;3.65;2.55;;;23.80;99.90;;;;;;5025711;28;20041;-69
2021/07/10 11:32:18;;;;;;;10.00;3.17;;;23.80;99.90;;;;;;5025655;28;20030;-68
2021/07/10 11:34:57;;;;;;;4.72;2.85;;;23.80;99.90;;;;;;5006419;28;20470;-73
2021/07/10 11:37:28;;;;;;;7.22;3.72;;;23.70;99.90;;;;;;5006149;28;20034;-71
2021/07/10 11:39:53;;;;;;;4.50;2.60;;;23.80;99.90;;;;;;5004591;28;20098;-68
2021/07/10 11:42:20;;;;;;;10.18;2.88;;;23.90;99.90;;;;;;5004730;28;20022;-70
2021/07/10 11:44:47;;;;;;;5.60;2.35;;;24.10;99.90;;;;;;5006068;28;20152;-70
2021/07/10 11:47:32;;;;;;;5.80;3.15;;;24.30;99.90;;;;;;5006097;28;20031;-70
2021/07/10 11:49:59;;;;;;;3.75;2.53;;;24.50;99.90;;;;;;5005814;28;20038;-70
2021/07/10 11:52:25;;;;;;;7.07;3.00;;;24.80;99.90;;;;;;5005985;28;20046;-71
2021/07/10 11:54:53;;;;;;;3.70;2.17;;;25.00;99.90;;;;;;5005734;28;20042;-68
2021/07/10 11:57:20;;;;;;;6.35;2.70;;;25.30;99.90;;;;;;5005762;28;20054;-71
2021/07/10 11:59:46;;;;;;;4.22;2.65;;;25.50;99.90;;;;;;5004524;28;20137;-69
2021/07/10 12:02:15;;;;;;;4.60;2.95;;;25.50;99.90;;;;;;5005609;28;20120;-73
2021/07/10 12:05:02;;;;;;;3.78;2.85;;;25.40;99.90;;;;;;5005737;28;20081;-71
2021/07/10 12:07:29;;;;;;;4.15;2.63;;;25.30;99.90;;;;;;5005586;28;20033;-68
2021/07/10 12:09:55;;;;;;;5.88;2.80;;;25.20;99.90;;;;;;5005342;28;20030;-68
2021/07/10 12:12:21;;;;;;;5.05;2.70;;;25.20;99.90;;;;;;5005559;28;20046;-69
2021/07/10 12:14:55;;;;;;;5.93;3.03;;;25.30;99.90;;;;;;5005784;28;20424;-70
2021/07/10 12:17:21;;;;;;;4.95;2.78;;;25.10;99.90;;;;;;5005667;28;20451;-69
2021/07/10 12:19:53;;;;;;;6.60;3.30;;;25.00;99.90;;;;;;5005566;28;20034;-68
2021/07/10 12:22:21;;;;;;;5.18;2.78;;;25.10;99.90;;;;;;5005524;28;20061;-70
2021/07/10 12:24:47;;;;;;;13.75;2.88;;;25.10;99.90;;;;;;5005279;28;20026;-70
2021/07/10 12:27:17;;;;;;;5.20;2.85;;;24.90;99.90;;;;;;5005498;28;20031;-70
2021/07/10 12:29:53;;;;;;;9.85;3.42;;;24.80;99.90;;;;;;5005407;28;20042;-74
2021/07/10 12:32:19;;;;;;;6.10;3.42;;;24.70;99.90;;;;;;5005453;28;20089;-71
2021/07/10 12:34:54;;;;;;;4.10;2.55;;;24.70;99.90;;;;;;5005246;28;20053;-69
2021/07/10 12:37:22;;;;;;;4.95;2.60;;;25.00;99.90;;;;;;5005234;28;20134;-68
2021/07/10 12:39:48;;;;;;;4.13;2.75;;;25.30;99.90;;;;;;5005230;28;20392;-73
2021/07/10 12:42:13;;;;;;;7.35;3.40;;;25.40;99.90;;;;;;5005392;28;20029;-70
2021/07/10 12:44:43;;;;;;;3.83;2.47;;;25.60;99.90;;;;;;5005546;28;20039;-69